Huvudsida
METAR-TAF:

METAR-TAF

Flygplatser :

Værøy, Norge

Heliport

latitud: 67-39-16N, longitud: 12-43-37E, höjd: 5 m

Aktuellt väderrapport

Denna rapport gjordes för 12 timmar och 35 minuter sedan, klockan 14:50 UTC
Vind 13 kt från sydost
Temperatur -2°C
Fuktighet 63%
Tryck 996 hPa
Sikt 10 km eller mer
Få moln på en höjd av 3500 ft

METAR: ENVR 181450Z 13013KT 9999 FEW035 M02/M08 Q0996

Tid: 04:25 (03:25 UTC)


TAF: saknas

Aktuella väderrapporter och prognoser från 4000 flygplatser (METAR- och TAF-rapporter).

De tillgängliga stationerna syns som gula och röda prickar på kartan.

För musen över prickarna för att se namnen på stationerna.

Klicka sedan för att få väderrapporter och prognoser.

För att ändra kartan: Klicka på de gröna knapparna med ett svart kors på för att zooma in; den gröna knappen med ett streck på för att zooma ut; eller på de gröna pilarna för angränsande kartor.


METAR-TAF: